Linda — OJML — position and weather

sailwx.info

Track history (hours):
 
Tides and Currents Weather Stations Pressure Air Temp Water Temp Dewpoint Dewpoint Depression Visibility Wind Speed Wind Dir Waves Ship Positions

Linda

Last reported at 2017-Nov-17 20:25 UTC. Time now 2017-Nov-17 22:56 UTC.
Position N 51°27' E 002°42'.

Length 141 m; draft 8 m.

Type: Ship (hazmat cat A). MMSI: 230984000.

Date/timePositionNaut miles runAvg speedWind from/ knotsBaromVisibWave heightAir tempDewpointWater temp
2017-Nov-17 20:25N 51°27' E 002°42'512.3
2017-Nov-17 20:00N 51°22' E 002°45'816.6
2017-Nov-17 19:30N 51°23' E 002°59'715.2
2017-Nov-17 19:00N 51°22' E 003°10'2 3.2
2017-Nov-17 18:30N 51°21' E 003°11'0 0.0
2017-Nov-17 18:00N 51°21' E 003°11'0 0.0
2017-Nov-17 17:30N 51°21' E 003°11'0 0.1
2017-Nov-17 17:00N 51°21' E 003°12'0 0.1
2017-Nov-17 16:30N 51°21' E 003°11'0 0.0
2017-Nov-17 16:00N 51°21' E 003°11'0 0.0
2017-Nov-17 15:30N 51°21' E 003°11'0 0.0
2017-Nov-17 15:00N 51°21' E 003°11'0 0.0
2017-Nov-17 14:30N 51°21' E 003°11'0 0.0
2017-Nov-17 14:00N 51°21' E 003°11'0 0.0
2017-Nov-17 13:30N 51°21' E 003°11'0 0.0
2017-Nov-17 13:00N 51°21' E 003°11'0 0.0
2017-Nov-17 12:30N 51°21' E 003°11'0 0.0
2017-Nov-17 12:00N 51°21' E 003°11'0 0.0
2017-Nov-17 11:30N 51°21' E 003°11'0 0.0
2017-Nov-17 11:00N 51°21' E 003°11'0 0.0
2017-Nov-17 10:30N 51°21' E 003°11'0 0.0
2017-Nov-17 10:00N 51°21' E 003°11'0 0.3
2017-Nov-17 09:30N 51°21' E 003°12'5 9.4
2017-Nov-17 09:01N 51°24' E 003°06'714.8
2017-Nov-17 08:31N 51°22' E 002°54'814.5
2017-Nov-17 07:59N 51°21' E 002°42'612.2
2017-Nov-17 07:30N 51°22' E 002°33'8515.9
2017-Nov-17 02:08N 52°46' E 002°11'215.4
2017-Nov-17 01:59N 52°48' E 002°09'715.1
2017-Nov-17 01:30N 52°53' E 002°00'715.1
2017-Nov-17 01:00N 52°57' E 001°50'815.1
2017-Nov-17 00:30N 53°02' E 001°41'815.5
2017-Nov-17 00:00N 53°07' E 001°31'815.5
2017-Nov-16 23:30N 53°13' E 001°22'5515.3
2017-Nov-16 19:53N 53°56' E 000°24'616.0
2017-Nov-16 19:30N 54°01' E 000°17'816.1
2017-Nov-16 19:00N 54°07' E 000°08'816.3
2017-Nov-16 18:31N 54°13' W 000°02'816.6
2017-Nov-16 18:00N 54°19' W 000°11'816.8
2017-Nov-16 17:30N 54°25' W 000°21'31 4.3
2017-Nov-16 10:20N 54°41' W 001°06'310.3
2017-Nov-16 10:00N 54°43' W 001°02'611.3
2017-Nov-16 09:30N 54°46' W 000°53'611.4
2017-Nov-16 09:00N 54°48' W 000°44'41513.0
2017-Nov-15 01:09N 57°48' E 010°30'212.1
2017-Nov-15 00:59N 57°48' E 010°34'612.2
2017-Nov-15 00:30N 57°47' E 010°45'612.6
2017-Nov-15 00:00N 57°43' E 010°54'612.8
2017-Nov-14 23:30N 57°39' E 011°03'713.2
2017-Nov-14 23:00N 57°35' E 011°13'713.6
2017-Nov-14 22:28N 57°30' E 011°22'613.1
2017-Nov-14 22:00N 57°25' E 011°28'713.4
2017-Nov-14 21:30N 57°18' E 011°32'714.0
2017-Nov-14 21:00N 57°12' E 011°37'714.1
2017-Nov-14 20:30N 57°05' E 011°41'5313.7
2017-Nov-14 16:38N 56°17' E 012°20'313.4
2017-Nov-14 16:26N 56°14' E 012°23'613.9
2017-Nov-14 16:01N 56°10' E 012°29'815.0
2017-Nov-14 15:30N 56°04' E 012°38'815.2
2017-Nov-14 15:01N 55°57' E 012°43'815.7
2017-Nov-14 14:31N 55°49' E 012°44'815.5
2017-Nov-14 14:01N 55°42' E 012°41'510.8
2017-Nov-14 13:31N 55°36' E 012°42'4 8.0
2017-Nov-14 13:01N 55°32' E 012°43'714.1
2017-Nov-14 12:30N 55°25' E 012°42'714.7
2017-Nov-14 12:00N 55°18' E 012°42'815.7
2017-Nov-14 11:30N 55°15' E 012°55'815.3
2017-Nov-14 11:00N 55°15' E 013°09'815.5
2017-Nov-14 10:30N 55°15' E 013°22'1315.8
2017-Nov-14 09:42N 55°14' E 013°44'1416.0
2017-Nov-14 08:49N 55°14' E 014°09'714.8
2017-Nov-14 08:21N 55°17' E 014°21'816.5
2017-Nov-14 07:53N 55°22' E 014°29'715.9
2017-Nov-14 07:29N 55°26' E 014°38'816.4
2017-Nov-14 07:00N 55°27' E 014°52'916.5
2017-Nov-14 06:28N 55°27' E 015°08'816.7
2017-Nov-14 05:59N 55°27' E 015°22'2016.7
2017-Nov-14 04:45N 55°29' E 015°58'516.5
2017-Nov-14 04:26N 55°29' E 016°08'716.4
2017-Nov-14 04:00N 55°29' E 016°20'  
2017-Nov-11 05:40N 59°33' E 022°50'310.3
2017-Nov-11 05:23N 59°34' E 022°56'410.4
2017-Nov-11 05:00N 59°35' E 023°03'510.4
2017-Nov-11 04:30N 59°37' E 023°12'510.2
2017-Nov-11 04:01N 59°39' E 023°22'510.2
2017-Nov-11 03:31N 59°41' E 023°31'510.2
2017-Nov-11 03:00N 59°42' E 023°41'510.2
2017-Nov-11 02:31N 59°44' E 023°51'510.2
2017-Nov-11 02:00N 59°45' E 024°00'610.2
2017-Nov-11 01:25N 59°47' E 024°11'410.3
2017-Nov-11 01:00N 59°49' E 024°20'510.1
2017-Nov-11 00:30N 59°51' E 024°29'510.1
2017-Nov-11 00:01N 59°52' E 024°38'5 9.9
2017-Nov-10 23:31N 59°54' E 024°48'5 9.8
2017-Nov-10 23:00N 59°56' E 024°57'4 9.0
2017-Nov-10 22:30N 59°59' E 025°04'5 9.4
2017-Nov-10 22:01N 60°03' E 025°08'4 8.5
2017-Nov-10 21:30N 60°07' E 025°11'611.9
2017-Nov-10 21:00N 60°13' E 025°12'0 0.0
2017-Nov-10 08:47N 60°13' E 025°11'0 0.0
2017-Nov-10 06:47N 60°13' E 025°11'0 1.3
2017-Nov-10 06:31N 60°13' E 025°12'3 5.3
2017-Nov-10 06:00N 60°10' E 025°13'815.5
2017-Nov-10 05:30N 60°02' E 025°09'713.9
2017-Nov-10 04:59N 59°58' E 025°20'914.1
2017-Nov-10 04:19N 59°55' E 025°38'1713.5
2017-Nov-10 03:01N 59°59' E 026°12'013.1
2017-Nov-10 03:00N 59°59' E 026°12'713.7
2017-Nov-10 02:30N 60°00' E 026°26'713.3
2017-Nov-10 02:00N 60°01' E 026°39'713.7
2017-Nov-10 01:31N 60°00' E 026°53'713.9
2017-Nov-10 01:00N 60°00' E 027°06'714.0
2017-Nov-10 00:30N 60°04' E 027°18'713.8
2017-Nov-10 00:00N 60°08' E 027°30'713.8
2017-Nov-09 23:30N 60°11' E 027°42'612.4
2017-Nov-09 23:01N 60°11' E 027°54'713.9
2017-Nov-09 22:31N 60°10' E 028°08'714.0
2017-Nov-09 22:01N 60°07' E 028°21'714.2
2017-Nov-09 21:30N 60°03' E 028°33'815.4
2017-Nov-09 20:58N 60°03' E 028°50'2212.5
2017-Nov-09 19:11N 60°01' E 029°34'214.0
2017-Nov-09 19:00N 59°60' E 029°39'2 0.2
2017-Nov-09 04:54N 59°59' E 029°43'3 7.2
2017-Nov-09 04:30N 60°00' E 029°38'1113.6
2017-Nov-09 03:40N 60°02' E 029°15'916.1
2017-Nov-09 03:05N 60°02' E 028°56'315.8
2017-Nov-09 02:54N 60°02' E 028°51'616.1
2017-Nov-09 02:30N 60°02' E 028°38'815.9
2017-Nov-09 02:00N 60°05' E 028°22'815.3
2017-Nov-09 01:31N 60°08' E 028°09'816.0
2017-Nov-09 01:01N 60°10' E 027°53'815.2
2017-Nov-09 00:31N 60°08' E 027°38'816.5
2017-Nov-09 00:01N 60°04' E 027°24'816.6
2017-Nov-08 23:30N 59°60' E 027°10'815.5
2017-Nov-08 23:00N 59°59' E 026°55'816.2
2017-Nov-08 22:31N 59°59' E 026°38'816.7
2017-Nov-08 22:00N 59°57' E 026°22'2516.2
2017-Nov-08 20:29N 59°54' E 025°33'817.2
2017-Nov-08 20:00N 59°58' E 025°19'815.6
2017-Nov-08 19:31N 60°03' E 025°08'815.9
2017-Nov-08 19:00N 60°11' E 025°13'2 3.5
2017-Nov-08 18:27N 60°13' E 025°12'0 0.0
2017-Nov-08 18:00N 60°13' E 025°12'0 0.0
2017-Nov-08 17:21N 60°13' E 025°12'0 0.0
2017-Nov-08 15:03N 60°13' E 025°12'0 0.0
2017-Nov-08 14:42N 60°13' E 025°12'0 0.0
2017-Nov-08 14:09N 60°13' E 025°12'0 0.0
2017-Nov-08 13:54N 60°13' E 025°12'0 0.0
2017-Nov-08 12:45N 60°13' E 025°12'0 0.0
2017-Nov-08 12:21N 60°13' E 025°12'0 0.0
2017-Nov-08 11:39N 60°13' E 025°12'0 0.0
2017-Nov-08 11:08N 60°13' E 025°12'0 1.6
2017-Nov-08 11:00N 60°13' E 025°12'4 8.1
2017-Nov-08 10:30N 60°09' E 025°12'917.4
2017-Nov-08 10:00N 60°01' E 025°06'917.3
2017-Nov-08 09:30N 59°53' E 024°57'817.2
2017-Nov-08 09:01N 59°48' E 024°44'917.6
2017-Nov-08 08:30N 59°44' E 024°28'816.0
2017-Nov-08 08:00N 59°42' E 024°13'917.1
2017-Nov-08 07:28N 59°39' E 023°55'1017.3
2017-Nov-08 06:54N 59°36' E 023°37'817.5
2017-Nov-08 06:28N 59°34' E 023°23'  
Track history (hours):
 
Tides and Currents Weather Stations Pressure Air Temp Water Temp Dewpoint Dewpoint Depression Visibility Wind Speed Wind Dir Waves Ship Positions

Linda

Last reported at 2017-Nov-17 20:25 UTC. Time now 2017-Nov-17 22:56 UTC.
Position N 51°27' E 002°42'.

Length 141 m; draft 8 m.

Type: Ship (hazmat cat A). MMSI: 230984000.

Date/timePositionNaut miles runAvg speedWind from/ knotsBaromVisibWave heightAir tempDewpointWater temp
2017-Nov-17 20:25N 51°27' E 002°42'512.3
2017-Nov-17 20:00N 51°22' E 002°45'816.6
2017-Nov-17 19:30N 51°23' E 002°59'715.2
2017-Nov-17 19:00N 51°22' E 003°10'2 3.2
2017-Nov-17 18:30N 51°21' E 003°11'0 0.0
2017-Nov-17 18:00N 51°21' E 003°11'0 0.0
2017-Nov-17 17:30N 51°21' E 003°11'0 0.1
2017-Nov-17 17:00N 51°21' E 003°12'0 0.1
2017-Nov-17 16:30N 51°21' E 003°11'0 0.0
2017-Nov-17 16:00N 51°21' E 003°11'0 0.0
2017-Nov-17 15:30N 51°21' E 003°11'0 0.0
2017-Nov-17 15:00N 51°21' E 003°11'0 0.0
2017-Nov-17 14:30N 51°21' E 003°11'0 0.0
2017-Nov-17 14:00N 51°21' E 003°11'0 0.0
2017-Nov-17 13:30N 51°21' E 003°11'0 0.0
2017-Nov-17 13:00N 51°21' E 003°11'0 0.0
2017-Nov-17 12:30N 51°21' E 003°11'0 0.0
2017-Nov-17 12:00N 51°21' E 003°11'0 0.0
2017-Nov-17 11:30N 51°21' E 003°11'0 0.0
2017-Nov-17 11:00N 51°21' E 003°11'0 0.0
2017-Nov-17 10:30N 51°21' E 003°11'0 0.0
2017-Nov-17 10:00N 51°21' E 003°11'0 0.3
2017-Nov-17 09:30N 51°21' E 003°12'5 9.4
2017-Nov-17 09:01N 51°24' E 003°06'714.8
2017-Nov-17 08:31N 51°22' E 002°54'814.5
2017-Nov-17 07:59N 51°21' E 002°42'612.2
2017-Nov-17 07:30N 51°22' E 002°33'8515.9
2017-Nov-17 02:08N 52°46' E 002°11'215.4
2017-Nov-17 01:59N 52°48' E 002°09'715.1
2017-Nov-17 01:30N 52°53' E 002°00'715.1
2017-Nov-17 01:00N 52°57' E 001°50'815.1
2017-Nov-17 00:30N 53°02' E 001°41'815.5
2017-Nov-17 00:00N 53°07' E 001°31'815.5
2017-Nov-16 23:30N 53°13' E 001°22'5515.3
2017-Nov-16 19:53N 53°56' E 000°24'616.0
2017-Nov-16 19:30N 54°01' E 000°17'816.1
2017-Nov-16 19:00N 54°07' E 000°08'816.3
2017-Nov-16 18:31N 54°13' W 000°02'816.6
2017-Nov-16 18:00N 54°19' W 000°11'816.8
2017-Nov-16 17:30N 54°25' W 000°21'31 4.3
2017-Nov-16 10:20N 54°41' W 001°06'310.3
2017-Nov-16 10:00N 54°43' W 001°02'611.3
2017-Nov-16 09:30N 54°46' W 000°53'611.4
2017-Nov-16 09:00N 54°48' W 000°44'41513.0
2017-Nov-15 01:09N 57°48' E 010°30'212.1
2017-Nov-15 00:59N 57°48' E 010°34'612.2
2017-Nov-15 00:30N 57°47' E 010°45'612.6
2017-Nov-15 00:00N 57°43' E 010°54'612.8
2017-Nov-14 23:30N 57°39' E 011°03'713.2
2017-Nov-14 23:00N 57°35' E 011°13'713.6
2017-Nov-14 22:28N 57°30' E 011°22'613.1
2017-Nov-14 22:00N 57°25' E 011°28'713.4
2017-Nov-14 21:30N 57°18' E 011°32'714.0
2017-Nov-14 21:00N 57°12' E 011°37'714.1
2017-Nov-14 20:30N 57°05' E 011°41'5313.7
2017-Nov-14 16:38N 56°17' E 012°20'313.4
2017-Nov-14 16:26N 56°14' E 012°23'613.9
2017-Nov-14 16:01N 56°10' E 012°29'815.0
2017-Nov-14 15:30N 56°04' E 012°38'815.2
2017-Nov-14 15:01N 55°57' E 012°43'815.7
2017-Nov-14 14:31N 55°49' E 012°44'815.5
2017-Nov-14 14:01N 55°42' E 012°41'510.8
2017-Nov-14 13:31N 55°36' E 012°42'4 8.0
2017-Nov-14 13:01N 55°32' E 012°43'714.1
2017-Nov-14 12:30N 55°25' E 012°42'714.7
2017-Nov-14 12:00N 55°18' E 012°42'815.7
2017-Nov-14 11:30N 55°15' E 012°55'815.3
2017-Nov-14 11:00N 55°15' E 013°09'815.5
2017-Nov-14 10:30N 55°15' E 013°22'1315.8
2017-Nov-14 09:42N 55°14' E 013°44'1416.0
2017-Nov-14 08:49N 55°14' E 014°09'714.8
2017-Nov-14 08:21N 55°17' E 014°21'816.5
2017-Nov-14 07:53N 55°22' E 014°29'715.9
2017-Nov-14 07:29N 55°26' E 014°38'816.4
2017-Nov-14 07:00N 55°27' E 014°52'916.5
2017-Nov-14 06:28N 55°27' E 015°08'816.7
2017-Nov-14 05:59N 55°27' E 015°22'2016.7
2017-Nov-14 04:45N 55°29' E 015°58'516.5
2017-Nov-14 04:26N 55°29' E 016°08'716.4
2017-Nov-14 04:00N 55°29' E 016°20'  
2017-Nov-11 05:40N 59°33' E 022°50'310.3
2017-Nov-11 05:23N 59°34' E 022°56'410.4
2017-Nov-11 05:00N 59°35' E 023°03'510.4
2017-Nov-11 04:30N 59°37' E 023°12'510.2
2017-Nov-11 04:01N 59°39' E 023°22'510.2
2017-Nov-11 03:31N 59°41' E 023°31'510.2
2017-Nov-11 03:00N 59°42' E 023°41'510.2
2017-Nov-11 02:31N 59°44' E 023°51'510.2
2017-Nov-11 02:00N 59°45' E 024°00'610.2
2017-Nov-11 01:25N 59°47' E 024°11'410.3
2017-Nov-11 01:00N 59°49' E 024°20'510.1
2017-Nov-11 00:30N 59°51' E 024°29'510.1
2017-Nov-11 00:01N 59°52' E 024°38'5 9.9
2017-Nov-10 23:31N 59°54' E 024°48'5 9.8
2017-Nov-10 23:00N 59°56' E 024°57'4 9.0
2017-Nov-10 22:30N 59°59' E 025°04'5 9.4
2017-Nov-10 22:01N 60°03' E 025°08'4 8.5
2017-Nov-10 21:30N 60°07' E 025°11'611.9
2017-Nov-10 21:00N 60°13' E 025°12'0 0.0
2017-Nov-10 08:47N 60°13' E 025°11'0 0.0
2017-Nov-10 06:47N 60°13' E 025°11'0 1.3
2017-Nov-10 06:31N 60°13' E 025°12'3 5.3
2017-Nov-10 06:00N 60°10' E 025°13'815.5
2017-Nov-10 05:30N 60°02' E 025°09'713.9
2017-Nov-10 04:59N 59°58' E 025°20'914.1
2017-Nov-10 04:19N 59°55' E 025°38'1713.5
2017-Nov-10 03:01N 59°59' E 026°12'013.1
2017-Nov-10 03:00N 59°59' E 026°12'713.7
2017-Nov-10 02:30N 60°00' E 026°26'713.3
2017-Nov-10 02:00N 60°01' E 026°39'713.7
2017-Nov-10 01:31N 60°00' E 026°53'713.9
2017-Nov-10 01:00N 60°00' E 027°06'714.0
2017-Nov-10 00:30N 60°04' E 027°18'713.8
2017-Nov-10 00:00N 60°08' E 027°30'713.8
2017-Nov-09 23:30N 60°11' E 027°42'612.4
2017-Nov-09 23:01N 60°11' E 027°54'713.9
2017-Nov-09 22:31N 60°10' E 028°08'714.0
2017-Nov-09 22:01N 60°07' E 028°21'714.2
2017-Nov-09 21:30N 60°03' E 028°33'815.4
2017-Nov-09 20:58N 60°03' E 028°50'2212.5
2017-Nov-09 19:11N 60°01' E 029°34'214.0
2017-Nov-09 19:00N 59°60' E 029°39'2 0.2
2017-Nov-09 04:54N 59°59' E 029°43'3 7.2
2017-Nov-09 04:30N 60°00' E 029°38'1113.6
2017-Nov-09 03:40N 60°02' E 029°15'916.1
2017-Nov-09 03:05N 60°02' E 028°56'315.8
2017-Nov-09 02:54N 60°02' E 028°51'616.1
2017-Nov-09 02:30N 60°02' E 028°38'815.9
2017-Nov-09 02:00N 60°05' E 028°22'815.3
2017-Nov-09 01:31N 60°08' E 028°09'816.0
2017-Nov-09 01:01N 60°10' E 027°53'815.2
2017-Nov-09 00:31N 60°08' E 027°38'816.5
2017-Nov-09 00:01N 60°04' E 027°24'816.6
2017-Nov-08 23:30N 59°60' E 027°10'815.5
2017-Nov-08 23:00N 59°59' E 026°55'816.2
2017-Nov-08 22:31N 59°59' E 026°38'816.7
2017-Nov-08 22:00N 59°57' E 026°22'2516.2
2017-Nov-08 20:29N 59°54' E 025°33'817.2
2017-Nov-08 20:00N 59°58' E 025°19'815.6
2017-Nov-08 19:31N 60°03' E 025°08'815.9
2017-Nov-08 19:00N 60°11' E 025°13'2 3.5
2017-Nov-08 18:27N 60°13' E 025°12'0 0.0
2017-Nov-08 18:00N 60°13' E 025°12'0 0.0
2017-Nov-08 17:21N 60°13' E 025°12'0 0.0
2017-Nov-08 15:03N 60°13' E 025°12'0 0.0
2017-Nov-08 14:42N 60°13' E 025°12'0 0.0
2017-Nov-08 14:09N 60°13' E 025°12'0 0.0
2017-Nov-08 13:54N 60°13' E 025°12'0 0.0
2017-Nov-08 12:45N 60°13' E 025°12'0 0.0
2017-Nov-08 12:21N 60°13' E 025°12'0 0.0
2017-Nov-08 11:39N 60°13' E 025°12'0 0.0
2017-Nov-08 11:08N 60°13' E 025°12'0 1.6
2017-Nov-08 11:00N 60°13' E 025°12'4 8.1
2017-Nov-08 10:30N 60°09' E 025°12'917.4
2017-Nov-08 10:00N 60°01' E 025°06'917.3
2017-Nov-08 09:30N 59°53' E 024°57'817.2
2017-Nov-08 09:01N 59°48' E 024°44'917.6
2017-Nov-08 08:30N 59°44' E 024°28'816.0
2017-Nov-08 08:00N 59°42' E 024°13'917.1
2017-Nov-08 07:28N 59°39' E 023°55'1017.3
2017-Nov-08 06:54N 59°36' E 023°37'817.5
2017-Nov-08 06:28N 59°34' E 023°23'  

Dump ship's entire track history